sensor_id;sensor_type;location;lat;lon;timestamp;pressure;altitude;pressure_sealevel;temperature;humidity
31096;BME280;17749;51.962;8.560;2023-01-27T06:02:50;100883.75;;;2.60;100.00
31096;BME280;17749;51.962;8.560;2023-01-27T06:05:17;100886.38;;;2.63;100.00
31096;BME280;17749;51.962;8.560;2023-01-27T06:07:43;100882.88;;;2.64;100.00
31096;BME280;17749;51.962;8.560;2023-01-27T06:10:10;100883.75;;;2.67;100.00
31096;BME280;17749;51.962;8.560;2023-01-27T06:12:37;100878.53;;;2.68;100.00
31096;BME280;17749;51.962;8.560;2023-01-27T06:15:04;100902.19;;;2.70;100.00
31096;BME280;17749;51.962;8.560;2023-01-27T06:17:31;100897.81;;;2.70;100.00
31096;BME280;17749;51.962;8.560;2023-01-27T06:19:58;100905.69;;;2.72;100.00
31096;BME280;17749;51.962;8.560;2023-01-27T06:22:25;100907.47;;;2.73;100.00
31096;BME280;17749;51.962;8.560;2023-01-27T06:24:52;100904.84;;;2.73;100.00
31096;BME280;17749;51.962;8.560;2023-01-27T06:27:18;100902.22;;;2.73;100.00
31096;BME280;17749;51.962;8.560;2023-01-27T06:29:45;100906.63;;;2.75;100.00
31096;BME280;17749;51.962;8.560;2023-01-27T06:32:12;100912.75;;;2.76;100.00
31096;BME280;17749;51.962;8.560;2023-01-27T06:34:39;100908.34;;;2.75;100.00
31096;BME280;17749;51.962;8.560;2023-01-27T06:37:06;100913.63;;;2.76;100.00
31096;BME280;17749;51.962;8.560;2023-01-27T06:39:33;100920.63;;;2.77;100.00
31096;BME280;17749;51.962;8.560;2023-01-27T06:42:00;100912.75;;;2.79;100.00
31096;BME280;17749;51.962;8.560;2023-01-27T06:44:27;100914.50;;;2.77;100.00
31096;BME280;17749;51.962;8.560;2023-01-27T06:46:53;100922.41;;;2.80;100.00
31096;BME280;17749;51.962;8.560;2023-01-27T06:49:20;100921.53;;;2.82;100.00
31096;BME280;17749;51.962;8.560;2023-01-27T06:51:47;100925.06;;;2.83;100.00
31096;BME280;17749;51.962;8.560;2023-01-27T06:54:14;100920.66;;;2.85;100.00
31096;BME280;17749;51.962;8.560;2023-01-27T06:56:41;100930.34;;;2.86;100.00
31096;BME280;17749;51.962;8.560;2023-01-27T06:59:08;100929.47;;;2.87;100.00
31096;BME280;17749;51.962;8.560;2023-01-27T07:01:35;100932.09;;;2.87;100.00
31096;BME280;17749;51.962;8.560;2023-01-27T07:04:03;100939.09;;;2.88;100.00
31096;BME280;17749;51.962;8.560;2023-01-27T07:06:29;100935.63;;;2.89;100.00
31096;BME280;17749;51.962;8.560;2023-01-27T07:08:56;100939.09;;;2.88;100.00
31096;BME280;17749;51.962;8.560;2023-01-27T07:11:23;100944.41;;;2.91;100.00
31096;BME280;17749;51.962;8.560;2023-01-27T07:13:51;100942.63;;;2.90;100.00
31096;BME280;17749;51.962;8.560;2023-01-27T07:16:18;100941.75;;;2.93;100.00
31096;BME280;17749;51.962;8.560;2023-01-27T07:18:45;100945.28;;;2.95;100.00
31096;BME280;17749;51.962;8.560;2023-01-27T07:21:12;100943.53;;;2.95;100.00
31096;BME280;17749;51.962;8.560;2023-01-27T07:23:39;100947.06;;;2.99;100.00
31096;BME280;17749;51.962;8.560;2023-01-27T07:26:06;100953.19;;;2.99;100.00
31096;BME280;17749;51.962;8.560;2023-01-27T07:28:49;100949.69;;;3.00;100.00
31096;BME280;17749;51.962;8.560;2023-01-27T07:31:15;100944.41;;;2.97;100.00
31096;BME280;17749;51.962;8.560;2023-01-27T07:33:43;100947.94;;;2.96;100.00
31096;BME280;17749;51.962;8.560;2023-01-27T07:36:09;100948.81;;;2.97;100.00
31096;BME280;17749;51.962;8.560;2023-01-27T07:38:36;100956.69;;;2.98;100.00
31096;BME280;17749;51.962;8.560;2023-01-27T07:41:05;100956.72;;;3.01;100.00
31096;BME280;17749;51.962;8.560;2023-01-27T07:43:33;100962.00;;;3.01;100.00
31096;BME280;17749;51.962;8.560;2023-01-27T07:46:06;100960.22;;;3.03;100.00
31096;BME280;17749;51.962;8.560;2023-01-27T07:48:33;100960.22;;;3.03;100.00
31096;BME280;17749;51.962;8.560;2023-01-27T07:51:00;100958.47;;;3.05;100.00
31096;BME280;17749;51.962;8.560;2023-01-27T07:53:27;100960.22;;;3.03;100.00
31096;BME280;17749;51.962;8.560;2023-01-27T07:55:54;100965.47;;;3.03;100.00
31096;BME280;17749;51.962;8.560;2023-01-27T07:58:20;100965.47;;;3.03;100.00
31096;BME280;17749;51.962;8.560;2023-01-27T08:00:47;100969.00;;;3.05;100.00
31096;BME280;17749;51.962;8.560;2023-01-27T08:03:23;100968.13;;;3.06;100.00
31096;BME280;17749;51.962;8.560;2023-01-27T08:05:51;100972.50;;;3.06;100.00
31096;BME280;17749;51.962;8.560;2023-01-27T08:08:18;100983.06;;;3.07;100.00
31096;BME280;17749;51.962;8.560;2023-01-27T08:10:45;100972.53;;;3.07;100.00
31096;BME280;17749;51.962;8.560;2023-01-27T08:13:14;100976.06;;;3.10;100.00
31096;BME280;17749;51.962;8.560;2023-01-27T08:15:42;100988.31;;;3.09;100.00
31096;BME280;17749;51.962;8.560;2023-01-27T08:18:09;100990.06;;;3.12;100.00
31096;BME280;17749;51.962;8.560;2023-01-27T08:20:36;100989.19;;;3.11;100.00
31096;BME280;17749;51.962;8.560;2023-01-27T08:23:03;100987.47;;;3.10;100.00
31096;BME280;17749;51.962;8.560;2023-01-27T08:25:30;100991.84;;;3.10;100.00
31096;BME280;17749;51.962;8.560;2023-01-27T08:27:57;100992.72;;;3.10;100.00
31096;BME280;17749;51.962;8.560;2023-01-27T08:30:24;100997.97;;;3.12;100.00
31096;BME280;17749;51.962;8.560;2023-01-27T08:32:51;100997.97;;;3.12;100.00
31096;BME280;17749;51.962;8.560;2023-01-27T08:35:18;100997.97;;;3.12;100.00
31096;BME280;17749;51.962;8.560;2023-01-27T08:37:46;101007.66;;;3.13;100.00
31096;BME280;17749;51.962;8.560;2023-01-27T08:40:14;101007.66;;;3.13;100.00
31096;BME280;17749;51.962;8.560;2023-01-27T08:42:42;101005.88;;;3.12;100.00
31096;BME280;17749;51.962;8.560;2023-01-27T08:45:10;101008.53;;;3.13;100.00
31096;BME280;17749;51.962;8.560;2023-01-27T08:47:37;101003.25;;;3.13;100.00
31096;BME280;17749;51.962;8.560;2023-01-27T08:50:04;101011.16;;;3.16;100.00
31096;BME280;17749;51.962;8.560;2023-01-27T08:52:31;101017.31;;;3.17;100.00
31096;BME280;17749;51.962;8.560;2023-01-27T08:54:58;101022.59;;;3.21;100.00
31096;BME280;17749;51.962;8.560;2023-01-27T08:57:25;101019.09;;;3.21;100.00
31096;BME280;17749;51.962;8.560;2023-01-27T08:59:52;101021.72;;;3.24;100.00
31096;BME280;17749;51.962;8.560;2023-01-27T09:02:19;101034.03;;;3.25;100.00
31096;BME280;17749;51.962;8.560;2023-01-27T09:04:47;101039.28;;;3.20;100.00
31096;BME280;17749;51.962;8.560;2023-01-27T09:07:15;101032.25;;;3.18;100.00
31096;BME280;17749;51.962;8.560;2023-01-27T09:09:45;101039.22;;;3.13;100.00
31096;BME280;17749;51.962;8.560;2023-01-27T09:12:12;101043.59;;;3.11;100.00
31096;BME280;17749;51.962;8.560;2023-01-27T09:14:39;101042.72;;;3.12;100.00
31096;BME280;17749;51.962;8.560;2023-01-27T09:17:06;101040.06;;;3.08;100.00
31096;BME280;17749;51.962;8.560;2023-01-27T09:19:33;101043.56;;;3.09;100.00
31096;BME280;17749;51.962;8.560;2023-01-27T09:22:01;101049.75;;;3.13;100.00
31096;BME280;17749;51.962;8.560;2023-01-27T09:24:28;101049.75;;;3.13;100.00
31096;BME280;17749;51.962;8.560;2023-01-27T09:26:54;101062.94;;;3.16;100.00
31096;BME280;17749;51.962;8.560;2023-01-27T09:29:21;101066.44;;;3.19;100.00
31096;BME280;17749;51.962;8.560;2023-01-27T09:31:48;101062.09;;;3.23;100.00
31096;BME280;17749;51.962;8.560;2023-01-27T09:34:15;101061.25;;;3.25;100.00
31096;BME280;17749;51.962;8.560;2023-01-27T09:36:47;101063.00;;;3.29;100.00
31096;BME280;17749;51.962;8.560;2023-01-27T09:39:17;101065.66;;;3.31;100.00
31096;BME280;17749;51.962;8.560;2023-01-27T09:55:57;101077.13;;;3.44;100.00
31096;BME280;17749;51.962;8.560;2023-01-27T10:10:02;101077.13;;;3.44;100.00
31096;BME280;17749;51.962;8.560;2023-01-27T10:15:29;101078.88;;;3.43;100.00
31096;BME280;17749;51.962;8.560;2023-01-27T10:20:57;101069.22;;;3.42;100.00
31096;BME280;17749;51.962;8.560;2023-01-27T10:23:59;101060.44;;;3.43;100.00
31096;BME280;17749;51.962;8.560;2023-01-27T10:26:49;101065.72;;;3.48;100.00
31096;BME280;17749;51.962;8.560;2023-01-27T10:30:07;101059.56;;;3.47;100.00
31096;BME280;17749;51.962;8.560;2023-01-27T10:32:48;101065.72;;;3.46;100.00
31096;BME280;17749;51.962;8.560;2023-01-27T10:40:58;101070.97;;;3.43;100.00
31096;BME280;17749;51.962;8.560;2023-01-27T10:49:16;101079.84;;;3.67;100.00
31096;BME280;17749;51.962;8.560;2023-01-27T10:52:10;101085.13;;;3.70;100.00
31096;BME280;17749;51.962;8.560;2023-01-27T10:54:45;101076.34;;;3.77;100.00
31096;BME280;17749;51.962;8.560;2023-01-27T10:57:17;101084.31;;;3.83;100.00
31096;BME280;17749;51.962;8.560;2023-01-27T10:59:52;101076.41;;;3.80;100.00
31096;BME280;17749;51.962;8.560;2023-01-27T11:05:42;101078.16;;;3.98;100.00
31096;BME280;17749;51.962;8.560;2023-01-27T11:08:15;101071.13;;;3.92;100.00
31096;BME280;17749;51.962;8.560;2023-01-27T11:10:47;101080.81;;;3.95;100.00
31096;BME280;17749;51.962;8.560;2023-01-27T11:13:34;101078.19;;;3.97;100.00
31096;BME280;17749;51.962;8.560;2023-01-27T11:16:03;101079.94;;;3.98;100.00
31096;BME280;17749;51.962;8.560;2023-01-27T11:18:33;101081.72;;;3.99;100.00
31096;BME280;17749;51.962;8.560;2023-01-27T11:21:04;101075.56;;;3.97;100.00
31096;BME280;17749;51.962;8.560;2023-01-27T11:23:38;101069.38;;;3.98;100.00
31096;BME280;17749;51.962;8.560;2023-01-27T11:30:08;101089.63;;;4.02;100.00
31096;BME280;17749;51.962;8.560;2023-01-27T11:32:22;101083.44;;;3.98;100.00
31096;BME280;17749;51.962;8.560;2023-01-27T11:35:10;101071.13;;;3.92;100.00
31096;BME280;17749;51.962;8.560;2023-01-27T11:37:40;101070.28;;;3.93;100.00
31096;BME280;17749;51.962;8.560;2023-01-27T11:40:17;101074.66;;;3.98;100.00
31096;BME280;17749;51.962;8.560;2023-01-27T11:42:44;101080.81;;;3.98;100.00
31096;BME280;17749;51.962;8.560;2023-01-27T11:45:17;101072.03;;;3.94;100.00
31096;BME280;17749;51.962;8.560;2023-01-27T11:47:47;101077.28;;;3.88;100.00
31096;BME280;17749;51.962;8.560;2023-01-27T11:50:18;101075.50;;;3.87;100.00
31096;BME280;17749;51.962;8.560;2023-01-27T11:52:48;101075.53;;;3.89;100.00
31096;BME280;17749;51.962;8.560;2023-01-27T11:55:22;101069.38;;;3.85;100.00
31096;BME280;17749;51.962;8.560;2023-01-27T11:58:22;101059.69;;;3.80;100.00
31096;BME280;17749;51.962;8.560;2023-01-27T12:00:55;101063.19;;;3.82;100.00
31096;BME280;17749;51.962;8.560;2023-01-27T12:03:48;101069.34;;;3.79;100.00
31096;BME280;17749;51.962;8.560;2023-01-27T12:06:31;101064.06;;;3.79;100.00
31096;BME280;17749;51.962;8.560;2023-01-27T12:08:59;101063.16;;;3.65;100.00
31096;BME280;17749;51.962;8.560;2023-01-27T12:11:28;101055.25;;;3.68;100.00
31096;BME280;17749;51.962;8.560;2023-01-27T12:14:03;101063.16;;;3.66;100.00
31096;BME280;17749;51.962;8.560;2023-01-27T12:16:43;101054.38;;;3.67;100.00
31096;BME280;17749;51.962;8.560;2023-01-27T12:19:23;101060.53;;;3.74;100.00
31096;BME280;17749;51.962;8.560;2023-01-27T12:21:57;101051.75;;;3.69;100.00
31096;BME280;17749;51.962;8.560;2023-01-27T12:24:38;101054.41;;;3.70;100.00
31096;BME280;17749;51.962;8.560;2023-01-27T12:27:06;101055.28;;;3.74;100.00
31096;BME280;17749;51.962;8.560;2023-01-27T12:29:48;101048.25;;;3.73;100.00
31096;BME280;17749;51.962;8.560;2023-01-27T12:32:21;101055.28;;;3.74;100.00
31096;BME280;17749;51.962;8.560;2023-01-27T12:34:51;101051.78;;;3.78;100.00
31096;BME280;17749;51.962;8.560;2023-01-27T12:37:26;101055.31;;;3.80;100.00
31096;BME280;17749;51.962;8.560;2023-01-27T12:40:17;101043.88;;;3.78;100.00
31096;BME280;17749;51.962;8.560;2023-01-27T12:42:49;101043.88;;;3.80;100.00
31096;BME280;17749;51.962;8.560;2023-01-27T12:45:31;101053.53;;;3.82;100.00
31096;BME280;17749;51.962;8.560;2023-01-27T12:48:17;101047.38;;;3.79;100.00
31096;BME280;17749;51.962;8.560;2023-01-27T12:53:20;101042.13;;;3.80;100.00
31096;BME280;17749;51.962;8.560;2023-01-27T13:01:02;101035.09;;;3.90;100.00
31096;BME280;17749;51.962;8.560;2023-01-27T13:03:36;101021.06;;;3.94;100.00
31096;BME280;17749;51.962;8.560;2023-01-27T13:06:04;101028.97;;;3.95;100.00
31096;BME280;17749;51.962;8.560;2023-01-27T13:08:34;101020.19;;;3.95;100.00
31096;BME280;17749;51.962;8.560;2023-01-27T13:11:05;101019.28;;;3.90;100.00
31096;BME280;17749;51.962;8.560;2023-01-27T13:13:32;101018.44;;;3.92;100.00
31096;BME280;17749;51.962;8.560;2023-01-27T13:18:38;101015.81;;;3.91;100.00
31096;BME280;17749;51.962;8.560;2023-01-27T13:21:14;101024.59;;;3.91;100.00
31096;BME280;17749;51.962;8.560;2023-01-27T13:23:45;101026.31;;;3.82;100.00
31096;BME280;17749;51.962;8.560;2023-01-27T13:26:33;101031.56;;;3.74;100.00
31096;BME280;17749;51.962;8.560;2023-01-27T13:32:00;101028.00;;;3.58;100.00
31096;BME280;17749;51.962;8.560;2023-01-27T13:34:37;101028.00;;;3.55;100.00
31096;BME280;17749;51.962;8.560;2023-01-27T13:37:16;101034.16;;;3.59;100.00
31096;BME280;17749;51.962;8.560;2023-01-27T13:42:55;101032.41;;;3.64;100.00
31096;BME280;17749;51.962;8.560;2023-01-27T13:48:00;101036.78;;;3.57;100.00
31096;BME280;17749;51.962;8.560;2023-01-27T13:50:33;101033.28;;;3.60;100.00
31096;BME280;17749;51.962;8.560;2023-01-27T13:53:02;101030.66;;;3.57;100.00
31096;BME280;17749;51.962;8.560;2023-01-27T13:55:45;101038.56;;;3.57;100.00
31096;BME280;17749;51.962;8.560;2023-01-27T13:58:25;101040.31;;;3.59;100.00
31096;BME280;17749;51.962;8.560;2023-01-27T14:11:23;101050.84;;;3.58;100.00
31096;BME280;17749;51.962;8.560;2023-01-27T14:14:07;101049.94;;;3.59;100.00
31096;BME280;17749;51.962;8.560;2023-01-27T14:17:04;101058.75;;;3.58;100.00
31096;BME280;17749;51.962;8.560;2023-01-27T14:19:49;101047.31;;;3.53;100.00
31096;BME280;17749;51.962;8.560;2023-01-27T14:22:38;101049.94;;;3.53;100.00
31096;BME280;17749;51.962;8.560;2023-01-27T14:27:40;101051.69;;;3.52;100.00
31096;BME280;17749;51.962;8.560;2023-01-27T14:30:42;101056.94;;;3.50;100.00
31096;BME280;17749;51.962;8.560;2023-01-27T14:33:20;101055.19;;;3.43;100.00
31096;BME280;17749;51.962;8.560;2023-01-27T14:36:08;101056.91;;;3.38;100.00
31096;BME280;17749;51.962;8.560;2023-01-27T14:47:23;101062.09;;;3.20;100.00
31096;BME280;17749;51.962;8.560;2023-01-27T14:52:48;101072.56;;;3.17;100.00
31096;BME280;17749;51.962;8.560;2023-01-27T14:58:32;101098.84;;;3.04;100.00
31096;BME280;17749;51.962;8.560;2023-01-27T15:04:48;101093.50;;;2.95;100.00
31096;BME280;17749;51.962;8.560;2023-01-27T15:15:46;101093.44;;;2.83;100.00
31096;BME280;17749;51.962;8.560;2023-01-27T15:27:03;101111.00;;;2.87;100.00
31096;BME280;17749;51.962;8.560;2023-01-27T15:29:30;101103.97;;;2.86;100.00
31096;BME280;17749;51.962;8.560;2023-01-27T15:34:44;101112.75;;;2.88;100.00
31096;BME280;17749;51.962;8.560;2023-01-27T15:40:08;101121.53;;;2.87;100.00
31096;BME280;17749;51.962;8.560;2023-01-27T15:45:31;101131.16;;;2.88;100.00
31096;BME280;17749;51.962;8.560;2023-01-27T15:48:04;101128.53;;;2.87;100.00
31096;BME280;17749;51.962;8.560;2023-01-27T15:50:35;101133.78;;;2.87;100.00
31096;BME280;17749;51.962;8.560;2023-01-27T15:53:15;101137.31;;;2.87;100.00
31096;BME280;17749;51.962;8.560;2023-01-27T15:55:49;101133.78;;;2.85;100.00
31096;BME280;17749;51.962;8.560;2023-01-27T16:00:51;101143.44;;;2.86;100.00
31096;BME280;17749;51.962;8.560;2023-01-27T16:03:31;101148.66;;;2.81;100.00
31096;BME280;17749;51.962;8.560;2023-01-27T16:06:08;101139.84;;;2.76;100.00
31096;BME280;17749;51.962;8.560;2023-01-27T16:08:44;101146.78;;;2.68;100.00
31096;BME280;17749;51.962;8.560;2023-01-27T16:16:43;101159.91;;;2.67;100.00
31096;BME280;17749;51.962;8.560;2023-01-27T16:21:52;101158.16;;;2.62;100.00
31096;BME280;17749;51.962;8.560;2023-01-27T16:24:42;101154.63;;;2.60;100.00
31096;BME280;17749;51.962;8.560;2023-01-27T16:29:57;101168.50;;;2.44;100.00
31096;BME280;17749;51.962;8.560;2023-01-27T16:32:34;101157.91;;;2.38;100.00
31096;BME280;17749;51.962;8.560;2023-01-27T16:35:05;101158.78;;;2.37;100.00
31096;BME280;17749;51.962;8.560;2023-01-27T16:37:35;101164.06;;;2.38;100.00
31096;BME280;17749;51.962;8.560;2023-01-27T16:40:05;101157.91;;;2.41;100.00
31096;BME280;17749;51.962;8.560;2023-01-27T16:43:00;101161.44;;;2.40;100.00
31096;BME280;17749;51.962;8.560;2023-01-27T16:45:39;101158.78;;;2.40;100.00
31096;BME280;17749;51.962;8.560;2023-01-27T16:50:48;101165.75;;;2.33;100.00
31096;BME280;17749;51.962;8.560;2023-01-27T16:53:19;101166.59;;;2.31;100.00
31096;BME280;17749;51.962;8.560;2023-01-27T16:55:57;101158.66;;;2.28;100.00
31096;BME280;17749;51.962;8.560;2023-01-27T16:58:26;101171.81;;;2.28;100.00
31096;BME280;17749;51.962;8.560;2023-01-27T17:01:21;101161.28;;;2.28;100.00
31096;BME280;17749;51.962;8.560;2023-01-27T17:03:49;101156.91;;;2.27;100.00
31096;BME280;17749;51.962;8.560;2023-01-27T17:06:18;101163.06;;;2.29;100.00
31096;BME280;17749;51.962;8.560;2023-01-27T17:08:46;101165.66;;;2.27;100.00
31096;BME280;17749;51.962;8.560;2023-01-27T17:13:55;101171.78;;;2.25;100.00
31096;BME280;17749;51.962;8.560;2023-01-27T17:16:32;101175.28;;;2.24;100.00
31096;BME280;17749;51.962;8.560;2023-01-27T17:19:04;101175.28;;;2.24;100.00
31096;BME280;17749;51.962;8.560;2023-01-27T17:21:39;101179.69;;;2.26;100.00
31096;BME280;17749;51.962;8.560;2023-01-27T17:26:44;101184.00;;;2.23;100.00
31096;BME280;17749;51.962;8.560;2023-01-27T17:29:20;101186.63;;;2.21;100.00
31096;BME280;17749;51.962;8.560;2023-01-27T17:31:48;101183.97;;;2.19;100.00
31096;BME280;17749;51.962;8.560;2023-01-27T17:34:17;101191.88;;;2.19;100.00
31096;BME280;17749;51.962;8.560;2023-01-27T17:39:30;101196.19;;;2.14;100.00
31096;BME280;17749;51.962;8.560;2023-01-27T17:41:58;101195.34;;;2.15;100.00
31096;BME280;17749;51.962;8.560;2023-01-27T17:44:27;101193.59;;;2.16;100.00
31096;BME280;17749;51.962;8.560;2023-01-27T17:46:53;101193.56;;;2.14;100.00
31096;BME280;17749;51.962;8.560;2023-01-27T17:49:20;101190.94;;;2.14;100.00
31096;BME280;17749;51.962;8.560;2023-01-27T17:51:48;101197.94;;;2.14;100.00
31096;BME280;17749;51.962;8.560;2023-01-27T17:54:35;101209.34;;;2.16;100.00
31096;BME280;17749;51.962;8.560;2023-01-27T17:59:42;101217.19;;;2.11;100.00
31096;BME280;17749;51.962;8.560;2023-01-27T18:02:22;101219.81;;;2.11;100.00
31096;BME280;17749;51.962;8.560;2023-01-27T18:04:51;101223.28;;;2.07;100.00
31096;BME280;17749;51.962;8.560;2023-01-27T18:07:19;101213.59;;;2.06;100.00
31096;BME280;17749;51.962;8.560;2023-01-27T18:09:51;101213.59;;;2.06;100.00
31096;BME280;17749;51.962;8.560;2023-01-27T18:14:55;101231.09;;;2.04;100.00
31096;BME280;17749;51.962;8.560;2023-01-27T18:17:23;101229.34;;;2.03;100.00
31096;BME280;17749;51.962;8.560;2023-01-27T18:19:53;101231.06;;;2.01;100.00
31096;BME280;17749;51.962;8.560;2023-01-27T18:22:20;101224.13;;;2.05;100.00
31096;BME280;17749;51.962;8.560;2023-01-27T18:24:53;101232.00;;;2.05;100.00
31096;BME280;17749;51.962;8.560;2023-01-27T18:27:32;101224.97;;;2.02;100.00
31096;BME280;17749;51.962;8.560;2023-01-27T18:30:11;101224.16;;;2.09;100.00
31096;BME280;17749;51.962;8.560;2023-01-27T18:32:40;101233.81;;;2.10;100.00
31096;BME280;17749;51.962;8.560;2023-01-27T18:35:32;101234.66;;;2.09;100.00
31096;BME280;17749;51.962;8.560;2023-01-27T18:38:03;101239.91;;;2.09;100.00
31096;BME280;17749;51.962;8.560;2023-01-27T18:40:34;101240.81;;;2.08;100.00
31096;BME280;17749;51.962;8.560;2023-01-27T18:43:03;101246.06;;;2.08;100.00
31096;BME280;17749;51.962;8.560;2023-01-27T18:45:30;101253.91;;;2.05;100.00
31096;BME280;17749;51.962;8.560;2023-01-27T18:47:57;101252.13;;;2.04;100.00
31096;BME280;17749;51.962;8.560;2023-01-27T18:50:26;101247.78;;;2.06;100.00
31096;BME280;17749;51.962;8.560;2023-01-27T18:52:53;101254.78;;;2.06;100.00
31096;BME280;17749;51.962;8.560;2023-01-27T18:55:21;101250.41;;;2.06;100.00
31096;BME280;17749;51.962;8.560;2023-01-27T18:57:51;101250.38;;;2.03;100.00
31096;BME280;17749;51.962;8.560;2023-01-27T19:00:41;101256.50;;;2.04;100.00
31096;BME280;17749;51.962;8.560;2023-01-27T19:03:14;101271.34;;;2.00;100.00
31096;BME280;17749;51.962;8.560;2023-01-27T19:05:44;101273.06;;;1.96;100.00
31096;BME280;17749;51.962;8.560;2023-01-27T19:08:19;101270.38;;;1.93;100.00
31096;BME280;17749;51.962;8.560;2023-01-27T19:10:48;101270.34;;;1.90;100.00
31096;BME280;17749;51.962;8.560;2023-01-27T19:13:15;101273.84;;;1.89;100.00
31096;BME280;17749;51.962;8.560;2023-01-27T19:15:47;101269.41;;;1.87;100.00
31096;BME280;17749;51.962;8.560;2023-01-27T19:18:33;101267.63;;;1.86;100.00
31096;BME280;17749;51.962;8.560;2023-01-27T19:21:01;101261.44;;;1.81;100.00
31096;BME280;17749;51.962;8.560;2023-01-27T19:23:28;101268.44;;;1.80;100.00
31096;BME280;17749;51.962;8.560;2023-01-27T19:25:56;101265.81;;;1.79;100.00
31096;BME280;17749;51.962;8.560;2023-01-27T19:28:34;101273.59;;;1.75;100.00
31096;BME280;17749;51.962;8.560;2023-01-27T19:31:03;101265.69;;;1.72;100.00
31096;BME280;17749;51.962;8.560;2023-01-27T19:33:32;101268.31;;;1.72;100.00
31096;BME280;17749;51.962;8.560;2023-01-27T19:36:09;101264.84;;;1.73;100.00
31096;BME280;17749;51.962;8.560;2023-01-27T19:38:39;101265.72;;;1.75;100.00
31096;BME280;17749;51.962;8.560;2023-01-27T19:41:07;101267.53;;;1.77;100.00
31096;BME280;17749;51.962;8.560;2023-01-27T19:43:36;101261.34;;;1.74;100.00
31096;BME280;17749;51.962;8.560;2023-01-27T19:46:13;101274.53;;;1.76;100.00
31096;BME280;17749;51.962;8.560;2023-01-27T19:48:40;101271.84;;;1.73;100.00
31096;BME280;17749;51.962;8.560;2023-01-27T19:51:09;101278.88;;;1.75;100.00
31096;BME280;17749;51.962;8.560;2023-01-27T19:53:39;101268.34;;;1.74;100.00
31096;BME280;17749;51.962;8.560;2023-01-27T19:56:29;101283.25;;;1.73;100.00
31096;BME280;17749;51.962;8.560;2023-01-27T19:58:57;101288.50;;;1.75;100.00
31096;BME280;17749;51.962;8.560;2023-01-27T20:01:24;101289.38;;;1.74;100.00
31096;BME280;17749;51.962;8.560;2023-01-27T20:03:52;101287.63;;;1.74;100.00
31096;BME280;17749;51.962;8.560;2023-01-27T20:06:25;101277.03;;;1.70;100.00
31096;BME280;17749;51.962;8.560;2023-01-27T20:08:57;101290.19;;;1.71;100.00
31096;BME280;17749;51.962;8.560;2023-01-27T20:11:39;101290.19;;;1.71;100.00
31096;BME280;17749;51.962;8.560;2023-01-27T20:14:11;101284.91;;;1.68;100.00
31096;BME280;17749;51.962;8.560;2023-01-27T20:16:40;101292.81;;;1.71;100.00
31096;BME280;17749;51.962;8.560;2023-01-27T20:19:07;101297.16;;;1.69;100.00
31096;BME280;17749;51.962;8.560;2023-01-27T20:21:34;101309.47;;;1.70;100.00
31096;BME280;17749;51.962;8.560;2023-01-27T20:24:01;101307.63;;;1.66;100.00
31096;BME280;17749;51.962;8.560;2023-01-27T20:26:28;101306.78;;;1.69;100.00
31096;BME280;17749;51.962;8.560;2023-01-27T20:28:57;101313.81;;;1.68;100.00
31096;BME280;17749;51.962;8.560;2023-01-27T20:31:24;101308.50;;;1.67;100.00
31096;BME280;17749;51.962;8.560;2023-01-27T20:33:51;101301.50;;;1.66;100.00
31096;BME280;17749;51.962;8.560;2023-01-27T20:36:21;101302.34;;;1.65;100.00
31096;BME280;17749;51.962;8.560;2023-01-27T20:38:49;101304.09;;;1.64;100.00
31096;BME280;17749;51.962;8.560;2023-01-27T20:41:20;101312.84;;;1.63;100.00
31096;BME280;17749;51.962;8.560;2023-01-27T20:43:58;101311.06;;;1.62;100.00
31096;BME280;17749;51.962;8.560;2023-01-27T20:46:26;101310.19;;;1.62;100.00
31096;BME280;17749;51.962;8.560;2023-01-27T20:48:54;101304.94;;;1.62;100.00
31096;BME280;17749;51.962;8.560;2023-01-27T20:51:21;101314.50;;;1.58;100.00
31096;BME280;17749;51.962;8.560;2023-01-27T20:53:48;101308.31;;;1.54;100.00
31096;BME280;17749;51.962;8.560;2023-01-27T20:56:21;101306.59;;;1.57;100.00
31096;BME280;17749;51.962;8.560;2023-01-27T20:58:49;101308.31;;;1.53;100.00
31096;BME280;17749;51.962;8.560;2023-01-27T21:01:19;101307.44;;;1.54;100.00
31096;BME280;17749;51.962;8.560;2023-01-27T21:03:53;101303.84;;;1.49;100.00
31096;BME280;17749;51.962;8.560;2023-01-27T21:06:20;101305.63;;;1.50;100.00
31096;BME280;17749;51.962;8.560;2023-01-27T21:08:48;101309.94;;;1.46;100.00
31096;BME280;17749;51.962;8.560;2023-01-27T21:11:16;101314.31;;;1.46;100.00
31096;BME280;17749;51.962;8.560;2023-01-27T21:13:44;101312.59;;;1.48;100.00
31096;BME280;17749;51.962;8.560;2023-01-27T21:16:11;101309.94;;;1.46;100.00
31096;BME280;17749;51.962;8.560;2023-01-27T21:18:38;101323.09;;;1.48;100.00
31096;BME280;17749;51.962;8.560;2023-01-27T21:21:05;101315.25;;;1.49;100.00
31096;BME280;17749;51.962;8.560;2023-01-27T21:23:33;101317.84;;;1.48;100.00
31096;BME280;17749;51.962;8.560;2023-01-27T21:26:04;101316.00;;;1.44;100.00
31096;BME280;17749;51.962;8.560;2023-01-27T21:28:32;101312.44;;;1.39;100.00
